sensor_id;sensor_type;location;lat;lon;timestamp;P1;durP1;ratioP1;P2;durP2;ratioP2
48367;SDS011;34173;47.446;18.912;2022-09-24T00:01:38;6.43;;;2.92;;
48367;SDS011;34173;47.446;18.912;2022-09-24T00:04:09;5.25;;;2.42;;
48367;SDS011;34173;47.446;18.912;2022-09-24T00:06:41;5.80;;;2.60;;
48367;SDS011;34173;47.446;18.912;2022-09-24T00:09:11;5.25;;;2.50;;
48367;SDS011;34173;47.446;18.912;2022-09-24T00:11:40;5.53;;;3.10;;
48367;SDS011;34173;47.446;18.912;2022-09-24T00:14:09;5.07;;;2.50;;
48367;SDS011;34173;47.446;18.912;2022-09-24T00:16:37;5.47;;;2.75;;
48367;SDS011;34173;47.446;18.912;2022-09-24T00:19:05;4.43;;;2.50;;
48367;SDS011;34173;47.446;18.912;2022-09-24T00:21:33;5.37;;;2.58;;
48367;SDS011;34173;47.446;18.912;2022-09-24T00:24:06;5.10;;;2.47;;
48367;SDS011;34173;47.446;18.912;2022-09-24T00:26:35;5.00;;;2.70;;
48367;SDS011;34173;47.446;18.912;2022-09-24T00:29:21;7.32;;;2.67;;
48367;SDS011;34173;47.446;18.912;2022-09-24T00:31:51;6.60;;;2.78;;
48367;SDS011;34173;47.446;18.912;2022-09-24T00:34:20;4.60;;;2.45;;
48367;SDS011;34173;47.446;18.912;2022-09-24T00:36:47;5.80;;;2.75;;
48367;SDS011;34173;47.446;18.912;2022-09-24T00:39:15;5.32;;;2.55;;
48367;SDS011;34173;47.446;18.912;2022-09-24T00:41:43;7.75;;;2.95;;
48367;SDS011;34173;47.446;18.912;2022-09-24T00:47:20;4.47;;;2.58;;
48367;SDS011;34173;47.446;18.912;2022-09-24T00:49:49;5.18;;;2.72;;
48367;SDS011;34173;47.446;18.912;2022-09-24T00:52:17;6.07;;;2.62;;
48367;SDS011;34173;47.446;18.912;2022-09-24T00:54:45;4.72;;;2.50;;
48367;SDS011;34173;47.446;18.912;2022-09-24T00:57:13;6.75;;;2.83;;
48367;SDS011;34173;47.446;18.912;2022-09-24T00:59:41;6.70;;;2.70;;
48367;SDS011;34173;47.446;18.912;2022-09-24T01:02:09;5.35;;;2.45;;
48367;SDS011;34173;47.446;18.912;2022-09-24T01:04:36;6.65;;;2.90;;
48367;SDS011;34173;47.446;18.912;2022-09-24T01:07:04;5.25;;;2.58;;
48367;SDS011;34173;47.446;18.912;2022-09-24T01:09:31;5.82;;;2.67;;
48367;SDS011;34173;47.446;18.912;2022-09-24T01:14:48;3.95;;;2.03;;
48367;SDS011;34173;47.446;18.912;2022-09-24T01:22:57;5.10;;;2.42;;
48367;SDS011;34173;47.446;18.912;2022-09-24T01:25:33;5.25;;;2.12;;
48367;SDS011;34173;47.446;18.912;2022-09-24T01:30:55;5.10;;;2.65;;
48367;SDS011;34173;47.446;18.912;2022-09-24T01:33:35;6.35;;;2.95;;
48367;SDS011;34173;47.446;18.912;2022-09-24T01:36:03;6.25;;;2.70;;
48367;SDS011;34173;47.446;18.912;2022-09-24T01:38:35;5.32;;;2.45;;
48367;SDS011;34173;47.446;18.912;2022-09-24T01:41:10;5.82;;;2.85;;
48367;SDS011;34173;47.446;18.912;2022-09-24T01:43:38;5.60;;;2.50;;
48367;SDS011;34173;47.446;18.912;2022-09-24T01:46:06;6.18;;;2.17;;
48367;SDS011;34173;47.446;18.912;2022-09-24T01:48:35;7.00;;;3.25;;
48367;SDS011;34173;47.446;18.912;2022-09-24T01:51:17;5.93;;;2.67;;
48367;SDS011;34173;47.446;18.912;2022-09-24T01:53:51;7.78;;;3.15;;
48367;SDS011;34173;47.446;18.912;2022-09-24T01:56:41;6.20;;;2.80;;
48367;SDS011;34173;47.446;18.912;2022-09-24T01:59:18;8.98;;;2.97;;
48367;SDS011;34173;47.446;18.912;2022-09-24T02:02:09;5.93;;;3.00;;
48367;SDS011;34173;47.446;18.912;2022-09-24T02:04:41;7.00;;;3.30;;
48367;SDS011;34173;47.446;18.912;2022-09-24T02:07:47;7.60;;;3.40;;
48367;SDS011;34173;47.446;18.912;2022-09-24T02:10:17;8.20;;;3.20;;
48367;SDS011;34173;47.446;18.912;2022-09-24T02:12:48;9.15;;;3.15;;
48367;SDS011;34173;47.446;18.912;2022-09-24T02:15:33;8.05;;;3.78;;
48367;SDS011;34173;47.446;18.912;2022-09-24T02:18:04;7.75;;;3.60;;
48367;SDS011;34173;47.446;18.912;2022-09-24T02:20:35;6.93;;;2.95;;
48367;SDS011;34173;47.446;18.912;2022-09-24T02:23:03;7.35;;;3.08;;
48367;SDS011;34173;47.446;18.912;2022-09-24T02:25:38;5.68;;;2.60;;
48367;SDS011;34173;47.446;18.912;2022-09-24T02:28:17;6.53;;;3.17;;
48367;SDS011;34173;47.446;18.912;2022-09-24T02:30:52;6.15;;;3.22;;
48367;SDS011;34173;47.446;18.912;2022-09-24T02:33:24;6.78;;;2.78;;
48367;SDS011;34173;47.446;18.912;2022-09-24T02:36:10;10.30;;;3.85;;
48367;SDS011;34173;47.446;18.912;2022-09-24T02:38:38;6.47;;;2.58;;
48367;SDS011;34173;47.446;18.912;2022-09-24T02:41:05;5.45;;;2.33;;
48367;SDS011;34173;47.446;18.912;2022-09-24T02:43:34;4.37;;;2.25;;
48367;SDS011;34173;47.446;18.912;2022-09-24T02:46:02;4.28;;;2.35;;
48367;SDS011;34173;47.446;18.912;2022-09-24T02:48:30;4.32;;;2.12;;
48367;SDS011;34173;47.446;18.912;2022-09-24T02:50:57;5.87;;;2.55;;
48367;SDS011;34173;47.446;18.912;2022-09-24T02:53:25;5.07;;;2.65;;
48367;SDS011;34173;47.446;18.912;2022-09-24T02:55:52;6.72;;;2.65;;
48367;SDS011;34173;47.446;18.912;2022-09-24T02:58:20;5.57;;;2.30;;
48367;SDS011;34173;47.446;18.912;2022-09-24T03:00:47;8.07;;;2.40;;
48367;SDS011;34173;47.446;18.912;2022-09-24T03:03:15;5.22;;;2.58;;
48367;SDS011;34173;47.446;18.912;2022-09-24T03:05:42;5.15;;;2.40;;
48367;SDS011;34173;47.446;18.912;2022-09-24T03:08:10;5.53;;;2.50;;
48367;SDS011;34173;47.446;18.912;2022-09-24T03:10:38;5.68;;;2.60;;
48367;SDS011;34173;47.446;18.912;2022-09-24T03:13:05;5.40;;;2.62;;
48367;SDS011;34173;47.446;18.912;2022-09-24T03:15:33;5.80;;;2.83;;
48367;SDS011;34173;47.446;18.912;2022-09-24T03:18:00;7.93;;;3.05;;
48367;SDS011;34173;47.446;18.912;2022-09-24T03:20:28;5.75;;;2.90;;
48367;SDS011;34173;47.446;18.912;2022-09-24T03:22:55;4.90;;;2.28;;
48367;SDS011;34173;47.446;18.912;2022-09-24T03:25:23;5.43;;;2.53;;
48367;SDS011;34173;47.446;18.912;2022-09-24T03:27:51;5.82;;;2.60;;
48367;SDS011;34173;47.446;18.912;2022-09-24T03:30:19;4.50;;;2.47;;
48367;SDS011;34173;47.446;18.912;2022-09-24T03:33:05;6.70;;;2.75;;
48367;SDS011;34173;47.446;18.912;2022-09-24T03:35:33;6.60;;;3.15;;
48367;SDS011;34173;47.446;18.912;2022-09-24T03:38:01;5.78;;;2.95;;
48367;SDS011;34173;47.446;18.912;2022-09-24T03:40:29;6.03;;;2.50;;
48367;SDS011;34173;47.446;18.912;2022-09-24T03:42:56;5.20;;;2.60;;
48367;SDS011;34173;47.446;18.912;2022-09-24T03:45:24;7.50;;;2.97;;
48367;SDS011;34173;47.446;18.912;2022-09-24T03:47:51;6.03;;;2.80;;
48367;SDS011;34173;47.446;18.912;2022-09-24T03:50:19;5.32;;;2.70;;
48367;SDS011;34173;47.446;18.912;2022-09-24T03:52:46;5.53;;;2.37;;
48367;SDS011;34173;47.446;18.912;2022-09-24T03:55:14;4.28;;;2.20;;
48367;SDS011;34173;47.446;18.912;2022-09-24T03:57:42;6.37;;;2.47;;
48367;SDS011;34173;47.446;18.912;2022-09-24T04:00:09;5.90;;;2.53;;
48367;SDS011;34173;47.446;18.912;2022-09-24T04:02:37;8.68;;;2.75;;
48367;SDS011;34173;47.446;18.912;2022-09-24T04:05:06;10.02;;;3.05;;
48367;SDS011;34173;47.446;18.912;2022-09-24T04:07:34;6.22;;;2.92;;
48367;SDS011;34173;47.446;18.912;2022-09-24T04:10:02;7.12;;;3.28;;
48367;SDS011;34173;47.446;18.912;2022-09-24T04:12:29;7.55;;;3.08;;
48367;SDS011;34173;47.446;18.912;2022-09-24T04:14:57;5.93;;;2.90;;
48367;SDS011;34173;47.446;18.912;2022-09-24T04:17:24;7.20;;;3.28;;
48367;SDS011;34173;47.446;18.912;2022-09-24T04:19:57;6.10;;;3.05;;
48367;SDS011;34173;47.446;18.912;2022-09-24T04:22:25;5.75;;;2.92;;
48367;SDS011;34173;47.446;18.912;2022-09-24T04:24:57;6.32;;;3.20;;
48367;SDS011;34173;47.446;18.912;2022-09-24T04:27:24;6.25;;;2.97;;
48367;SDS011;34173;47.446;18.912;2022-09-24T04:29:52;9.57;;;4.43;;
48367;SDS011;34173;47.446;18.912;2022-09-24T04:32:20;7.93;;;4.18;;
48367;SDS011;34173;47.446;18.912;2022-09-24T04:34:48;12.00;;;4.82;;
48367;SDS011;34173;47.446;18.912;2022-09-24T04:37:15;8.82;;;4.50;;
48367;SDS011;34173;47.446;18.912;2022-09-24T04:39:42;7.85;;;4.65;;
48367;SDS011;34173;47.446;18.912;2022-09-24T04:42:14;7.93;;;4.18;;
48367;SDS011;34173;47.446;18.912;2022-09-24T04:44:43;7.82;;;3.97;;
48367;SDS011;34173;47.446;18.912;2022-09-24T04:47:13;9.80;;;4.35;;
48367;SDS011;34173;47.446;18.912;2022-09-24T04:49:41;10.25;;;4.40;;
48367;SDS011;34173;47.446;18.912;2022-09-24T04:52:11;8.20;;;4.45;;
48367;SDS011;34173;47.446;18.912;2022-09-24T04:54:41;8.85;;;4.25;;
48367;SDS011;34173;47.446;18.912;2022-09-24T04:57:13;12.02;;;4.78;;
48367;SDS011;34173;47.446;18.912;2022-09-24T04:59:41;15.18;;;6.22;;
48367;SDS011;34173;47.446;18.912;2022-09-24T05:02:09;14.38;;;5.53;;
48367;SDS011;34173;47.446;18.912;2022-09-24T05:04:37;12.48;;;6.70;;
48367;SDS011;34173;47.446;18.912;2022-09-24T05:07:04;9.00;;;4.50;;
48367;SDS011;34173;47.446;18.912;2022-09-24T05:09:32;8.80;;;4.72;;
48367;SDS011;34173;47.446;18.912;2022-09-24T05:11:59;10.68;;;4.43;;
48367;SDS011;34173;47.446;18.912;2022-09-24T05:14:27;10.63;;;4.20;;
48367;SDS011;34173;47.446;18.912;2022-09-24T05:16:55;8.02;;;4.47;;
48367;SDS011;34173;47.446;18.912;2022-09-24T05:19:23;8.27;;;4.75;;
48367;SDS011;34173;47.446;18.912;2022-09-24T05:21:51;10.68;;;5.65;;
48367;SDS011;34173;47.446;18.912;2022-09-24T05:24:19;11.65;;;5.72;;
48367;SDS011;34173;47.446;18.912;2022-09-24T05:26:46;8.55;;;4.25;;
48367;SDS011;34173;47.446;18.912;2022-09-24T05:29:39;7.57;;;4.00;;
48367;SDS011;34173;47.446;18.912;2022-09-24T05:32:09;9.35;;;4.45;;
48367;SDS011;34173;47.446;18.912;2022-09-24T05:34:38;9.27;;;4.60;;
48367;SDS011;34173;47.446;18.912;2022-09-24T05:37:07;9.15;;;4.85;;
48367;SDS011;34173;47.446;18.912;2022-09-24T05:39:35;10.20;;;5.30;;
48367;SDS011;34173;47.446;18.912;2022-09-24T05:42:03;10.50;;;5.15;;
48367;SDS011;34173;47.446;18.912;2022-09-24T05:44:30;10.52;;;5.35;;
48367;SDS011;34173;47.446;18.912;2022-09-24T05:46:58;8.38;;;5.05;;
48367;SDS011;34173;47.446;18.912;2022-09-24T05:49:26;9.48;;;4.65;;
48367;SDS011;34173;47.446;18.912;2022-09-24T05:51:53;9.60;;;4.65;;
48367;SDS011;34173;47.446;18.912;2022-09-24T05:54:20;6.80;;;3.42;;
48367;SDS011;34173;47.446;18.912;2022-09-24T05:56:48;9.13;;;3.80;;
48367;SDS011;34173;47.446;18.912;2022-09-24T05:59:16;7.70;;;4.10;;
48367;SDS011;34173;47.446;18.912;2022-09-24T06:01:43;7.95;;;4.30;;
48367;SDS011;34173;47.446;18.912;2022-09-24T06:04:11;8.00;;;3.55;;
48367;SDS011;34173;47.446;18.912;2022-09-24T06:06:38;7.53;;;4.03;;
48367;SDS011;34173;47.446;18.912;2022-09-24T06:09:06;10.23;;;4.78;;
48367;SDS011;34173;47.446;18.912;2022-09-24T06:11:36;9.60;;;4.93;;
48367;SDS011;34173;47.446;18.912;2022-09-24T06:14:07;7.10;;;4.00;;
48367;SDS011;34173;47.446;18.912;2022-09-24T06:16:35;10.32;;;5.07;;
48367;SDS011;34173;47.446;18.912;2022-09-24T06:19:03;9.75;;;5.50;;
48367;SDS011;34173;47.446;18.912;2022-09-24T06:21:30;11.27;;;5.90;;
48367;SDS011;34173;47.446;18.912;2022-09-24T06:23:58;12.70;;;5.80;;
48367;SDS011;34173;47.446;18.912;2022-09-24T06:26:25;11.73;;;6.30;;
48367;SDS011;34173;47.446;18.912;2022-09-24T06:28:54;9.98;;;5.55;;
48367;SDS011;34173;47.446;18.912;2022-09-24T06:31:27;11.85;;;6.90;;
48367;SDS011;34173;47.446;18.912;2022-09-24T06:33:54;11.05;;;6.90;;
48367;SDS011;34173;47.446;18.912;2022-09-24T06:36:22;14.80;;;8.55;;
48367;SDS011;34173;47.446;18.912;2022-09-24T06:38:50;16.40;;;9.82;;
48367;SDS011;34173;47.446;18.912;2022-09-24T06:41:18;14.02;;;7.62;;
48367;SDS011;34173;47.446;18.912;2022-09-24T06:43:45;12.63;;;7.32;;
48367;SDS011;34173;47.446;18.912;2022-09-24T06:46:13;9.95;;;6.65;;
48367;SDS011;34173;47.446;18.912;2022-09-24T06:48:41;10.32;;;6.62;;
48367;SDS011;34173;47.446;18.912;2022-09-24T06:51:09;10.88;;;6.25;;
48367;SDS011;34173;47.446;18.912;2022-09-24T06:53:36;11.27;;;6.40;;
48367;SDS011;34173;47.446;18.912;2022-09-24T06:56:04;10.55;;;6.62;;
48367;SDS011;34173;47.446;18.912;2022-09-24T06:58:32;13.25;;;7.53;;
48367;SDS011;34173;47.446;18.912;2022-09-24T07:01:00;10.15;;;7.03;;
48367;SDS011;34173;47.446;18.912;2022-09-24T07:03:30;10.60;;;7.07;;
48367;SDS011;34173;47.446;18.912;2022-09-24T07:05:59;11.38;;;6.65;;
48367;SDS011;34173;47.446;18.912;2022-09-24T07:08:27;13.00;;;7.97;;
48367;SDS011;34173;47.446;18.912;2022-09-24T07:10:55;14.60;;;8.40;;
48367;SDS011;34173;47.446;18.912;2022-09-24T07:13:22;19.48;;;7.97;;
48367;SDS011;34173;47.446;18.912;2022-09-24T07:15:50;15.00;;;9.00;;
48367;SDS011;34173;47.446;18.912;2022-09-24T07:18:19;13.18;;;8.25;;
48367;SDS011;34173;47.446;18.912;2022-09-24T07:20:53;15.10;;;9.73;;
48367;SDS011;34173;47.446;18.912;2022-09-24T07:23:22;16.77;;;10.07;;
48367;SDS011;34173;47.446;18.912;2022-09-24T07:25:53;15.82;;;10.20;;
48367;SDS011;34173;47.446;18.912;2022-09-24T07:28:22;16.62;;;10.30;;
48367;SDS011;34173;47.446;18.912;2022-09-24T07:30:56;17.12;;;11.00;;
48367;SDS011;34173;47.446;18.912;2022-09-24T07:33:29;17.73;;;10.60;;
48367;SDS011;34173;47.446;18.912;2022-09-24T07:35:57;16.52;;;11.38;;
48367;SDS011;34173;47.446;18.912;2022-09-24T07:38:24;18.33;;;10.55;;
48367;SDS011;34173;47.446;18.912;2022-09-24T07:40:55;15.73;;;10.70;;
48367;SDS011;34173;47.446;18.912;2022-09-24T07:43:24;16.83;;;11.70;;
48367;SDS011;34173;47.446;18.912;2022-09-24T07:45:52;18.55;;;10.75;;
48367;SDS011;34173;47.446;18.912;2022-09-24T07:48:22;21.48;;;11.82;;
48367;SDS011;34173;47.446;18.912;2022-09-24T07:50:49;19.25;;;11.68;;
48367;SDS011;34173;47.446;18.912;2022-09-24T07:53:17;21.02;;;12.75;;
48367;SDS011;34173;47.446;18.912;2022-09-24T07:55:44;21.48;;;12.50;;
48367;SDS011;34173;47.446;18.912;2022-09-24T07:58:12;18.10;;;11.40;;
48367;SDS011;34173;47.446;18.912;2022-09-24T08:00:40;20.65;;;12.57;;
48367;SDS011;34173;47.446;18.912;2022-09-24T08:03:08;19.95;;;12.23;;
48367;SDS011;34173;47.446;18.912;2022-09-24T08:05:41;21.70;;;12.10;;
48367;SDS011;34173;47.446;18.912;2022-09-24T08:08:12;19.15;;;11.95;;
48367;SDS011;34173;47.446;18.912;2022-09-24T08:10:40;21.23;;;12.00;;
48367;SDS011;34173;47.446;18.912;2022-09-24T08:13:09;18.73;;;11.85;;
48367;SDS011;34173;47.446;18.912;2022-09-24T08:15:37;18.17;;;11.50;;
48367;SDS011;34173;47.446;18.912;2022-09-24T08:18:04;20.27;;;11.98;;
48367;SDS011;34173;47.446;18.912;2022-09-24T08:20:32;20.42;;;11.30;;
48367;SDS011;34173;47.446;18.912;2022-09-24T08:23:00;18.65;;;11.95;;
48367;SDS011;34173;47.446;18.912;2022-09-24T08:25:28;17.92;;;10.27;;
48367;SDS011;34173;47.446;18.912;2022-09-24T08:28:03;17.30;;;10.90;;
48367;SDS011;34173;47.446;18.912;2022-09-24T08:30:32;21.33;;;10.57;;
48367;SDS011;34173;47.446;18.912;2022-09-24T08:33:00;17.48;;;10.23;;
48367;SDS011;34173;47.446;18.912;2022-09-24T08:35:28;18.70;;;10.18;;
48367;SDS011;34173;47.446;18.912;2022-09-24T08:37:55;17.52;;;8.90;;
48367;SDS011;34173;47.446;18.912;2022-09-24T08:40:27;14.90;;;8.23;;
48367;SDS011;34173;47.446;18.912;2022-09-24T08:43:02;15.75;;;9.25;;
48367;SDS011;34173;47.446;18.912;2022-09-24T08:45:55;12.32;;;8.25;;
48367;SDS011;34173;47.446;18.912;2022-09-24T08:48:44;14.13;;;7.45;;
48367;SDS011;34173;47.446;18.912;2022-09-24T08:51:18;13.07;;;7.37;;
48367;SDS011;34173;47.446;18.912;2022-09-24T08:54:06;10.38;;;7.40;;
48367;SDS011;34173;47.446;18.912;2022-09-24T08:56:36;13.68;;;7.60;;
48367;SDS011;34173;47.446;18.912;2022-09-24T08:59:14;9.88;;;6.82;;
48367;SDS011;34173;47.446;18.912;2022-09-24T09:09:48;11.93;;;7.30;;
48367;SDS011;34173;47.446;18.912;2022-09-24T09:12:42;12.93;;;7.32;;
48367;SDS011;34173;47.446;18.912;2022-09-24T09:15:17;11.95;;;7.15;;
48367;SDS011;34173;47.446;18.912;2022-09-24T09:17:48;13.48;;;7.53;;
48367;SDS011;34173;47.446;18.912;2022-09-24T09:20:40;11.70;;;7.37;;
48367;SDS011;34173;47.446;18.912;2022-09-24T09:23:20;13.75;;;8.25;;
48367;SDS011;34173;47.446;18.912;2022-09-24T09:25:56;13.20;;;8.48;;
48367;SDS011;34173;47.446;18.912;2022-09-24T09:28:25;13.52;;;8.25;;
48367;SDS011;34173;47.446;18.912;2022-09-24T09:43:46;10.20;;;6.07;;
48367;SDS011;34173;47.446;18.912;2022-09-24T09:46:19;10.00;;;6.32;;
48367;SDS011;34173;47.446;18.912;2022-09-24T09:49:10;9.52;;;5.37;;
48367;SDS011;34173;47.446;18.912;2022-09-24T09:51:40;11.25;;;5.85;;
48367;SDS011;34173;47.446;18.912;2022-09-24T09:54:08;8.30;;;4.78;;
48367;SDS011;34173;47.446;18.912;2022-09-24T09:56:37;6.70;;;4.30;;
48367;SDS011;34173;47.446;18.912;2022-09-24T10:01:41;8.20;;;4.10;;
48367;SDS011;34173;47.446;18.912;2022-09-24T10:04:26;7.80;;;4.30;;
48367;SDS011;34173;47.446;18.912;2022-09-24T10:07:02;8.25;;;4.50;;
48367;SDS011;34173;47.446;18.912;2022-09-24T10:09:35;8.93;;;4.57;;
48367;SDS011;34173;47.446;18.912;2022-09-24T10:12:16;12.45;;;5.55;;
48367;SDS011;34173;47.446;18.912;2022-09-24T10:14:59;6.37;;;4.10;;
48367;SDS011;34173;47.446;18.912;2022-09-24T10:17:35;7.60;;;4.07;;
48367;SDS011;34173;47.446;18.912;2022-09-24T10:20:08;7.62;;;4.28;;
48367;SDS011;34173;47.446;18.912;2022-09-24T10:22:46;8.25;;;3.85;;
48367;SDS011;34173;47.446;18.912;2022-09-24T10:25:35;10.75;;;3.42;;
48367;SDS011;34173;47.446;18.912;2022-09-24T10:28:06;6.85;;;3.45;;
48367;SDS011;34173;47.446;18.912;2022-09-24T10:30:55;5.30;;;2.95;;
48367;SDS011;34173;47.446;18.912;2022-09-24T10:33:25;6.95;;;3.10;;
48367;SDS011;34173;47.446;18.912;2022-09-24T10:36:03;5.15;;;2.30;;
48367;SDS011;34173;47.446;18.912;2022-09-24T10:38:33;4.10;;;2.08;;
48367;SDS011;34173;47.446;18.912;2022-09-24T10:41:01;5.55;;;2.22;;
48367;SDS011;34173;47.446;18.912;2022-09-24T10:43:50;4.30;;;2.17;;
48367;SDS011;34173;47.446;18.912;2022-09-24T10:46:37;4.72;;;2.25;;
48367;SDS011;34173;47.446;18.912;2022-09-24T10:52:49;6.95;;;2.40;;
48367;SDS011;34173;47.446;18.912;2022-09-24T10:55:14;5.97;;;2.17;;
48367;SDS011;34173;47.446;18.912;2022-09-24T11:05:52;5.87;;;2.30;;
48367;SDS011;34173;47.446;18.912;2022-09-24T11:14:30;5.72;;;2.15;;
48367;SDS011;34173;47.446;18.912;2022-09-24T11:22:58;3.30;;;2.03;;
48367;SDS011;34173;47.446;18.912;2022-09-24T11:25:39;4.50;;;2.28;;
48367;SDS011;34173;47.446;18.912;2022-09-24T11:28:13;5.15;;;1.87;;
48367;SDS011;34173;47.446;18.912;2022-09-24T11:36:41;3.87;;;1.90;;
48367;SDS011;34173;47.446;18.912;2022-09-24T11:39:29;5.65;;;2.20;;
48367;SDS011;34173;47.446;18.912;2022-09-24T11:53:18;4.32;;;1.70;;
48367;SDS011;34173;47.446;18.912;2022-09-24T11:56:09;4.03;;;2.03;;
48367;SDS011;34173;47.446;18.912;2022-09-24T11:59:13;5.53;;;2.00;;
48367;SDS011;34173;47.446;18.912;2022-09-24T12:01:48;5.15;;;2.08;;
48367;SDS011;34173;47.446;18.912;2022-09-24T12:04:31;4.97;;;2.25;;
48367;SDS011;34173;47.446;18.912;2022-09-24T12:08:08;4.97;;;2.20;;
48367;SDS011;34173;47.446;18.912;2022-09-24T12:10:42;4.40;;;2.05;;
48367;SDS011;34173;47.446;18.912;2022-09-24T12:23:54;2.90;;;1.70;;
48367;SDS011;34173;47.446;18.912;2022-09-24T12:26:29;3.78;;;1.87;;
48367;SDS011;34173;47.446;18.912;2022-09-24T12:28:59;4.68;;;2.03;;
48367;SDS011;34173;47.446;18.912;2022-09-24T12:34:49;4.78;;;2.28;;
48367;SDS011;34173;47.446;18.912;2022-09-24T12:37:22;4.93;;;2.70;;
48367;SDS011;34173;47.446;18.912;2022-09-24T12:40:13;4.47;;;2.15;;
48367;SDS011;34173;47.446;18.912;2022-09-24T12:42:49;4.35;;;1.60;;
48367;SDS011;34173;47.446;18.912;2022-09-24T12:45:21;5.93;;;2.00;;
48367;SDS011;34173;47.446;18.912;2022-09-24T12:47:53;4.70;;;2.15;;
48367;SDS011;34173;47.446;18.912;2022-09-24T12:50:26;7.43;;;2.20;;
48367;SDS011;34173;47.446;18.912;2022-09-24T12:52:55;6.20;;;1.90;;
48367;SDS011;34173;47.446;18.912;2022-09-24T12:55:23;4.53;;;1.90;;
48367;SDS011;34173;47.446;18.912;2022-09-24T13:06:21;3.95;;;1.80;;
48367;SDS011;34173;47.446;18.912;2022-09-24T13:08:59;4.37;;;1.73;;
48367;SDS011;34173;47.446;18.912;2022-09-24T13:11:31;4.90;;;2.12;;
48367;SDS011;34173;47.446;18.912;2022-09-24T13:16:40;3.95;;;1.67;;
48367;SDS011;34173;47.446;18.912;2022-09-24T13:22:31;3.95;;;1.90;;
48367;SDS011;34173;47.446;18.912;2022-09-24T13:25:08;5.80;;;2.12;;
48367;SDS011;34173;47.446;18.912;2022-09-24T13:27:54;5.05;;;1.80;;
48367;SDS011;34173;47.446;18.912;2022-09-24T13:30:42;4.85;;;1.98;;
48367;SDS011;34173;47.446;18.912;2022-09-24T13:36:21;4.53;;;2.00;;
48367;SDS011;34173;47.446;18.912;2022-09-24T13:41:40;3.97;;;1.98;;
48367;SDS011;34173;47.446;18.912;2022-09-24T13:44:21;6.55;;;2.17;;
48367;SDS011;34173;47.446;18.912;2022-09-24T13:52:44;3.85;;;1.70;;
48367;SDS011;34173;47.446;18.912;2022-09-24T13:55:28;3.62;;;2.00;;
48367;SDS011;34173;47.446;18.912;2022-09-24T13:57:58;4.12;;;1.80;;
48367;SDS011;34173;47.446;18.912;2022-09-24T14:00:26;7.37;;;1.80;;
48367;SDS011;34173;47.446;18.912;2022-09-24T14:03:04;4.55;;;1.73;;
48367;SDS011;34173;47.446;18.912;2022-09-24T14:05:45;4.78;;;2.00;;
48367;SDS011;34173;47.446;18.912;2022-09-24T14:08:13;5.07;;;2.00;;
48367;SDS011;34173;47.446;18.912;2022-09-24T14:10:41;3.58;;;1.85;;
48367;SDS011;34173;47.446;18.912;2022-09-24T14:13:14;7.37;;;2.12;;
48367;SDS011;34173;47.446;18.912;2022-09-24T14:18:21;3.90;;;1.90;;
48367;SDS011;34173;47.446;18.912;2022-09-24T14:20:54;6.15;;;2.10;;
48367;SDS011;34173;47.446;18.912;2022-09-24T14:23:25;6.50;;;2.42;;
48367;SDS011;34173;47.446;18.912;2022-09-24T14:25:57;4.47;;;2.47;;
48367;SDS011;34173;47.446;18.912;2022-09-24T14:28:26;5.62;;;2.30;;
48367;SDS011;34173;47.446;18.912;2022-09-24T14:30:58;5.28;;;2.28;;
48367;SDS011;34173;47.446;18.912;2022-09-24T14:33:29;8.38;;;2.30;;
48367;SDS011;34173;47.446;18.912;2022-09-24T14:35:58;5.03;;;2.20;;
48367;SDS011;34173;47.446;18.912;2022-09-24T14:38:27;6.53;;;2.33;;
48367;SDS011;34173;47.446;18.912;2022-09-24T14:41:02;5.25;;;2.67;;
48367;SDS011;34173;47.446;18.912;2022-09-24T14:43:42;4.20;;;2.20;;
48367;SDS011;34173;47.446;18.912;2022-09-24T14:46:36;6.18;;;2.90;;
48367;SDS011;34173;47.446;18.912;2022-09-24T14:49:22;5.15;;;2.35;;
48367;SDS011;34173;47.446;18.912;2022-09-24T14:51:52;5.47;;;2.40;;
48367;SDS011;34173;47.446;18.912;2022-09-24T14:54:24;5.22;;;2.40;;
48367;SDS011;34173;47.446;18.912;2022-09-24T14:57:07;4.43;;;2.33;;
48367;SDS011;34173;47.446;18.912;2022-09-24T14:59:43;5.93;;;2.40;;
48367;SDS011;34173;47.446;18.912;2022-09-24T15:02:16;4.10;;;2.40;;
48367;SDS011;34173;47.446;18.912;2022-09-24T15:04:50;4.87;;;2.40;;
48367;SDS011;34173;47.446;18.912;2022-09-24T15:07:23;5.97;;;2.78;;
48367;SDS011;34173;47.446;18.912;2022-09-24T15:09:53;5.53;;;2.90;;
48367;SDS011;34173;47.446;18.912;2022-09-24T15:12:29;5.22;;;2.55;;
48367;SDS011;34173;47.446;18.912;2022-09-24T15:14:59;4.97;;;2.53;;
48367;SDS011;34173;47.446;18.912;2022-09-24T15:17:33;4.97;;;2.45;;
48367;SDS011;34173;47.446;18.912;2022-09-24T15:22:30;6.97;;;2.92;;
48367;SDS011;34173;47.446;18.912;2022-09-24T15:24:58;7.60;;;2.92;;
48367;SDS011;34173;47.446;18.912;2022-09-24T15:27:30;5.65;;;2.78;;
48367;SDS011;34173;47.446;18.912;2022-09-24T15:29:59;5.65;;;2.75;;
48367;SDS011;34173;47.446;18.912;2022-09-24T15:32:29;6.53;;;2.78;;
48367;SDS011;34173;47.446;18.912;2022-09-24T15:34:58;5.97;;;2.72;;
48367;SDS011;34173;47.446;18.912;2022-09-24T15:37:26;5.30;;;2.78;;
48367;SDS011;34173;47.446;18.912;2022-09-24T15:39:58;5.60;;;2.72;;
48367;SDS011;34173;47.446;18.912;2022-09-24T15:42:32;7.22;;;3.00;;
48367;SDS011;34173;47.446;18.912;2022-09-24T15:44:59;5.25;;;2.80;;
48367;SDS011;34173;47.446;18.912;2022-09-24T15:47:27;7.72;;;3.10;;
48367;SDS011;34173;47.446;18.912;2022-09-24T15:49:55;7.22;;;3.37;;
48367;SDS011;34173;47.446;18.912;2022-09-24T15:52:24;7.70;;;4.00;;
48367;SDS011;34173;47.446;18.912;2022-09-24T15:54:53;7.55;;;3.22;;
48367;SDS011;34173;47.446;18.912;2022-09-24T15:57:22;6.25;;;3.40;;
48367;SDS011;34173;47.446;18.912;2022-09-24T15:59:52;5.50;;;3.35;;
48367;SDS011;34173;47.446;18.912;2022-09-24T16:02:21;7.32;;;3.72;;
48367;SDS011;34173;47.446;18.912;2022-09-24T16:04:51;8.60;;;3.95;;
48367;SDS011;34173;47.446;18.912;2022-09-24T16:07:19;9.13;;;3.85;;
48367;SDS011;34173;47.446;18.912;2022-09-24T16:09:47;7.00;;;3.70;;
48367;SDS011;34173;47.446;18.912;2022-09-24T16:12:15;6.95;;;3.80;;
48367;SDS011;34173;47.446;18.912;2022-09-24T16:14:43;8.05;;;3.15;;
48367;SDS011;34173;47.446;18.912;2022-09-24T16:17:10;8.82;;;3.55;;
48367;SDS011;34173;47.446;18.912;2022-09-24T16:19:38;7.82;;;4.35;;
48367;SDS011;34173;47.446;18.912;2022-09-24T16:22:10;8.50;;;4.30;;
48367;SDS011;34173;47.446;18.912;2022-09-24T16:24:43;7.87;;;4.53;;
48367;SDS011;34173;47.446;18.912;2022-09-24T16:27:10;7.97;;;5.10;;
48367;SDS011;34173;47.446;18.912;2022-09-24T16:29:38;7.03;;;3.87;;
48367;SDS011;34173;47.446;18.912;2022-09-24T16:32:05;5.78;;;3.62;;
48367;SDS011;34173;47.446;18.912;2022-09-24T16:34:33;7.45;;;4.07;;
48367;SDS011;34173;47.446;18.912;2022-09-24T16:37:00;8.98;;;3.80;;
48367;SDS011;34173;47.446;18.912;2022-09-24T16:39:28;6.55;;;4.12;;
48367;SDS011;34173;47.446;18.912;2022-09-24T16:41:56;7.15;;;4.32;;
48367;SDS011;34173;47.446;18.912;2022-09-24T16:44:24;8.43;;;4.07;;
48367;SDS011;34173;47.446;18.912;2022-09-24T16:46:51;7.00;;;4.05;;
48367;SDS011;34173;47.446;18.912;2022-09-24T16:49:21;8.60;;;4.85;;
48367;SDS011;34173;47.446;18.912;2022-09-24T16:51:49;9.38;;;5.18;;
48367;SDS011;34173;47.446;18.912;2022-09-24T16:54:17;9.50;;;5.35;;
48367;SDS011;34173;47.446;18.912;2022-09-24T16:56:49;10.88;;;5.10;;
48367;SDS011;34173;47.446;18.912;2022-09-24T16:59:18;8.68;;;4.90;;
48367;SDS011;34173;47.446;18.912;2022-09-24T17:01:46;9.02;;;6.00;;